Fairmount Heights, Maryland
Current Conditions -  °F | °C
As of 6:58 PM on Friday 24 Oct 2014 (Local Time) from KADW Reporting Station
Clear Clear  
Wind Chill: 60°   Ceiling: Unl
Heat Index: 60°   Visibility: 10mi
Dew Point: 40°   Wind: 10mph
Humidity: 47%   Direction: 280°W
Pressure: 29.91"   Gusts: NA
Location:  38.8854°N, 76.8965°W
Report Text: KADW 242258Z AUTO 28009KT 10SM CLR 16/04 A2991 RMK AO2 SLP135 T01560044 $
Loading
Personal Weather Stations






























Interactive Weather Map New forecast layout! Learn more

10-Day Weather Forecast

Advertisements
Track Severe Weather on mobile